createdAt,value
2022-09-02T00:00:35.204Z,1012.61
2022-09-02T00:01:35.192Z,1012.71
2022-09-02T00:02:35.299Z,1012.71
2022-09-02T00:03:35.248Z,1012.63
2022-09-02T00:04:35.159Z,1012.62
2022-09-02T00:05:35.143Z,1012.67
2022-09-02T00:06:35.135Z,1012.72
2022-09-02T00:07:35.122Z,1012.62
2022-09-02T00:08:35.112Z,1012.66
2022-09-02T00:09:35.102Z,1012.63
2022-09-02T00:10:35.078Z,1012.58
2022-09-02T00:11:35.078Z,1012.64
2022-09-02T00:12:35.064Z,1012.61
2022-09-02T00:13:35.057Z,1012.54
2022-09-02T00:14:35.038Z,1012.54
2022-09-02T00:15:35.031Z,1012.54
2022-09-02T00:16:35.074Z,1012.60
2022-09-02T00:17:35.036Z,1012.45
2022-09-02T00:18:34.999Z,1012.53
2022-09-02T00:19:34.983Z,1012.51
2022-09-02T00:20:34.963Z,1012.48
2022-09-02T00:21:34.973Z,1012.49
2022-09-02T00:22:34.942Z,1012.44
2022-09-02T00:23:34.969Z,1012.53
2022-09-02T00:24:34.924Z,1012.43
2022-09-02T00:25:34.910Z,1012.42
2022-09-02T00:26:34.923Z,1012.45
2022-09-02T00:27:34.891Z,1012.44
2022-09-02T00:28:34.893Z,1012.45
2022-09-02T00:29:34.871Z,1012.48
2022-09-02T00:30:34.859Z,1012.46
2022-09-02T00:31:34.894Z,1012.41
2022-09-02T00:32:34.828Z,1012.49
2022-09-02T00:33:34.831Z,1012.44
2022-09-02T00:34:34.818Z,1012.42
2022-09-02T00:35:34.816Z,1012.44
2022-09-02T00:36:34.798Z,1012.40
2022-09-02T00:37:34.776Z,1012.45
2022-09-02T00:38:34.770Z,1012.38
2022-09-02T00:39:34.754Z,1012.42
2022-09-02T00:40:34.880Z,1012.34
2022-09-02T00:41:34.759Z,1012.35
2022-09-02T00:42:34.725Z,1012.35
2022-09-02T00:43:34.717Z,1012.33
2022-09-02T00:44:34.707Z,1012.38
2022-09-02T00:45:34.767Z,1012.39
2022-09-02T00:46:34.674Z,1012.34
2022-09-02T00:47:34.661Z,1012.34
2022-09-02T00:48:34.668Z,1012.37
2022-09-02T00:49:34.638Z,1012.33
2022-09-02T00:50:34.650Z,1012.36
2022-09-02T00:51:34.616Z,1012.37
2022-09-02T00:52:34.625Z,1012.39
2022-09-02T00:53:34.605Z,1012.33
2022-09-02T00:54:34.589Z,1012.31
2022-09-02T00:55:34.601Z,1012.32
2022-09-02T00:56:34.564Z,1012.33
2022-09-02T00:57:34.550Z,1012.33
2022-09-02T00:58:34.542Z,1012.26
2022-09-02T00:59:34.528Z,1012.35
2022-09-02T01:00:34.870Z,1012.27
2022-09-02T01:01:34.626Z,1012.26
2022-09-02T01:02:34.496Z,1012.30
2022-09-02T01:03:34.479Z,1012.29
2022-09-02T01:04:34.482Z,1012.35
2022-09-02T01:05:34.459Z,1012.34
2022-09-02T01:06:34.451Z,1012.31
2022-09-02T01:07:34.434Z,1012.29
2022-09-02T01:08:34.459Z,1012.29
2022-09-02T01:09:34.550Z,1012.31
2022-09-02T01:10:34.424Z,1012.28
2022-09-02T01:11:34.395Z,1012.26
2022-09-02T01:12:34.382Z,1012.30
2022-09-02T01:13:34.375Z,1012.23
2022-09-02T01:14:34.388Z,1012.28
2022-09-02T01:15:34.362Z,1012.28
2022-09-02T01:16:34.380Z,1012.32
2022-09-02T01:17:34.324Z,1012.28
2022-09-02T01:18:34.318Z,1012.24
2022-09-02T01:19:34.312Z,1012.19
2022-09-02T01:20:34.305Z,1012.27
2022-09-02T01:21:34.294Z,1012.24
2022-09-02T01:22:34.276Z,1012.25
2022-09-02T01:23:34.775Z,1012.21
2022-09-02T01:24:34.250Z,1012.24
2022-09-02T01:25:34.254Z,1012.25
2022-09-02T01:26:34.244Z,1012.26
2022-09-02T01:27:34.210Z,1012.20
2022-09-02T01:28:34.211Z,1012.20
2022-09-02T01:29:34.188Z,1012.23
2022-09-02T01:30:34.185Z,1012.21
2022-09-02T01:31:34.269Z,1012.18
2022-09-02T01:32:34.189Z,1012.23
2022-09-02T01:33:34.144Z,1012.18
2022-09-02T01:34:34.155Z,1012.24
2022-09-02T01:35:34.126Z,1012.13
2022-09-02T01:36:34.136Z,1012.23
2022-09-02T01:37:34.130Z,1012.25
2022-09-02T01:38:34.095Z,1012.21
2022-09-02T01:39:34.084Z,1012.21
2022-09-02T01:40:34.181Z,1012.25
2022-09-02T01:41:34.051Z,1012.18
2022-09-02T01:42:34.052Z,1012.16
2022-09-02T01:43:34.029Z,1012.14
2022-09-02T01:44:34.023Z,1012.11
2022-09-02T01:45:34.029Z,1012.17
2022-09-02T01:46:34.055Z,1012.13
2022-09-02T01:47:34.002Z,1012.17
2022-09-02T01:48:33.985Z,1012.10
2022-09-02T01:49:35.998Z,1012.11
2022-09-02T01:50:33.959Z,1012.06
2022-09-02T01:51:33.943Z,1012.07
2022-09-02T01:52:33.952Z,1012.07
2022-09-02T01:53:33.942Z,1012.01
2022-09-02T01:54:33.925Z,1012.07
2022-09-02T01:55:33.897Z,1012.08
2022-09-02T01:56:33.889Z,1012.04
2022-09-02T01:57:33.874Z,1011.97
2022-09-02T01:58:33.873Z,1012.02
2022-09-02T01:59:33.859Z,1011.99
2022-09-02T02:00:33.863Z,1011.96
2022-09-02T02:01:33.884Z,1012.02
2022-09-02T02:02:33.828Z,1011.99
2022-09-02T02:03:33.814Z,1011.99
2022-09-02T02:04:33.802Z,1012.00
2022-09-02T02:05:33.785Z,1011.97
2022-09-02T02:06:33.779Z,1012.00
2022-09-02T02:07:33.764Z,1011.93
2022-09-02T02:08:33.760Z,1011.91
2022-09-02T02:09:33.763Z,1011.94
2022-09-02T02:10:33.726Z,1011.97
2022-09-02T02:11:33.717Z,1011.92
2022-09-02T02:12:33.705Z,1011.92
2022-09-02T02:13:33.706Z,1011.93
2022-09-02T02:14:33.698Z,1011.94
2022-09-02T02:15:33.673Z,1011.88
2022-09-02T02:16:33.761Z,1011.95
2022-09-02T02:17:33.648Z,1011.90
2022-09-02T02:18:33.654Z,1011.88
2022-09-02T02:19:33.629Z,1011.87
2022-09-02T02:20:33.617Z,1011.91
2022-09-02T04:49:23.456Z,1011.30
2022-09-02T05:09:58.054Z,1011.28
2022-09-02T05:10:58.038Z,1011.32
2022-09-02T05:11:58.021Z,1011.31
2022-09-02T05:12:58.008Z,1011.37
2022-09-02T05:13:58.008Z,1011.35
2022-09-02T05:14:57.983Z,1011.36
2022-09-02T05:15:58.070Z,1011.37
2022-09-02T05:16:57.973Z,1011.37
2022-09-02T05:17:57.954Z,1011.32
2022-09-02T05:18:57.952Z,1011.38
2022-09-02T05:19:57.932Z,1011.36
2022-09-02T05:20:57.925Z,1011.32
2022-09-02T05:21:57.928Z,1011.35
2022-09-02T05:22:57.897Z,1011.33
2022-09-02T05:23:57.914Z,1011.31
2022-09-02T05:24:57.875Z,1011.32
2022-09-02T05:25:57.890Z,1011.37
2022-09-02T05:26:57.870Z,1011.37
2022-09-02T05:27:57.842Z,1011.32
2022-09-02T05:28:57.834Z,1011.33
2022-09-02T05:29:57.824Z,1011.33
2022-09-02T05:30:57.852Z,1011.28
2022-09-02T05:31:57.828Z,1011.32
2022-09-02T05:32:57.781Z,1011.28
2022-09-02T05:33:57.779Z,1011.31
2022-09-02T05:34:57.761Z,1011.34
2022-09-02T05:35:57.752Z,1011.37
2022-09-02T05:36:57.755Z,1011.32
2022-09-02T05:38:00.941Z,1011.38
2022-09-02T05:38:57.716Z,1011.34
2022-09-02T05:39:57.711Z,1011.32
2022-09-02T05:40:57.746Z,1011.40
2022-09-02T05:41:57.689Z,1011.37
2022-09-02T05:42:57.689Z,1011.38
2022-09-02T05:43:57.706Z,1011.41
2022-09-02T05:44:57.654Z,1011.36
2022-09-02T05:45:57.691Z,1011.35
2022-09-02T05:46:57.633Z,1011.34
2022-09-02T05:47:57.653Z,1011.32
2022-09-02T05:48:57.623Z,1011.35
2022-09-02T05:49:57.606Z,1011.37
2022-09-02T05:50:58.525Z,1011.30
2022-09-02T05:51:57.581Z,1011.34
2022-09-02T05:52:57.562Z,1011.33
2022-09-02T05:53:57.559Z,1011.32
2022-09-02T05:54:57.551Z,1011.33
2022-09-02T05:55:57.528Z,1011.39
2022-09-02T05:56:57.514Z,1011.45
2022-09-02T05:57:57.518Z,1011.44
2022-09-02T05:58:57.493Z,1011.44
2022-09-02T05:59:57.502Z,1011.42
2022-09-02T06:00:57.472Z,1011.41
2022-09-02T06:01:57.766Z,1011.42
2022-09-02T06:02:57.503Z,1011.35
2022-09-02T06:03:57.447Z,1011.35
2022-09-02T06:04:57.423Z,1011.34
2022-09-02T06:05:57.417Z,1011.35
2022-09-02T06:06:57.400Z,1011.31
2022-09-02T06:07:57.399Z,1011.32
2022-09-02T06:08:57.402Z,1011.33
2022-09-02T06:09:57.371Z,1011.28
2022-09-02T06:10:57.365Z,1011.26
2022-09-02T06:11:57.356Z,1011.33
2022-09-02T06:12:57.339Z,1011.27
2022-09-02T06:13:57.340Z,1011.35
2022-09-02T06:14:57.342Z,1011.24
2022-09-02T06:15:57.387Z,1011.27
2022-09-02T06:16:57.301Z,1011.27
2022-09-02T06:17:57.289Z,1011.30
2022-09-02T06:18:57.294Z,1011.27
2022-09-02T06:19:57.261Z,1011.25
2022-09-02T06:20:57.252Z,1011.31
2022-09-02T06:21:57.249Z,1011.38
2022-09-02T06:22:57.225Z,1011.29
2022-09-02T06:23:57.219Z,1011.27
2022-09-02T06:24:57.223Z,1011.31
2022-09-02T06:25:57.193Z,1011.34
2022-09-02T06:26:57.185Z,1011.33
2022-09-02T06:27:57.178Z,1011.32
2022-09-02T06:28:57.159Z,1011.40
2022-09-02T06:29:57.151Z,1011.31
2022-09-02T06:30:57.254Z,1011.32
2022-09-02T06:31:57.128Z,1011.28
2022-09-02T06:32:57.113Z,1011.33
2022-09-02T06:33:57.122Z,1011.31
2022-09-02T06:34:57.093Z,1011.28
2022-09-02T06:35:57.098Z,1011.28
2022-09-02T06:36:57.069Z,1011.38
2022-09-02T06:37:57.062Z,1011.29
2022-09-02T06:38:57.049Z,1011.31
2022-09-02T06:39:57.193Z,1011.37
2022-09-02T06:40:57.052Z,1011.33
2022-09-02T06:41:57.019Z,1011.38
2022-09-02T06:42:57.007Z,1011.46
2022-09-02T06:43:57.009Z,1011.37
2022-09-02T06:44:57.028Z,1011.39
2022-09-02T06:45:57.035Z,1011.35
2022-09-02T06:46:56.975Z,1011.40
2022-09-02T06:47:56.955Z,1011.38
2022-09-02T06:48:56.939Z,1011.42
2022-09-02T06:49:56.931Z,1011.39
2022-09-02T06:50:56.944Z,1011.37
2022-09-02T06:51:56.969Z,1011.42
2022-09-02T06:52:56.893Z,1011.37
2022-09-02T06:53:56.886Z,1011.42
2022-09-02T06:54:56.871Z,1011.39
2022-09-02T06:55:56.864Z,1011.40
2022-09-02T06:56:56.894Z,1011.38
2022-09-02T06:57:56.843Z,1011.45
2022-09-02T06:58:56.828Z,1011.43
2022-09-02T07:00:01.933Z,1011.40
2022-09-02T07:00:57.871Z,1011.42
2022-09-02T07:01:56.964Z,1011.39
2022-09-02T07:02:56.844Z,1011.41
2022-09-02T07:03:56.780Z,1011.41
2022-09-02T07:04:57.682Z,1011.41
2022-09-02T07:05:56.757Z,1011.41
2022-09-02T07:06:56.794Z,1011.41
2022-09-02T07:07:56.750Z,1011.41
2022-09-02T07:08:56.729Z,1011.41
2022-09-02T07:09:56.718Z,1011.37
2022-09-02T07:10:56.700Z,1011.39
2022-09-02T07:11:59.834Z,1011.45
2022-09-02T07:12:56.701Z,1011.45
2022-09-02T07:13:56.795Z,1011.44
2022-09-02T07:14:56.693Z,1011.37
2022-09-02T07:15:56.691Z,1011.43
2022-09-02T07:16:56.727Z,1011.39
2022-09-02T07:17:56.675Z,1011.36
2022-09-02T07:18:56.632Z,1011.38
2022-09-02T07:19:56.608Z,1011.39
2022-09-02T07:20:56.624Z,1011.36
2022-09-02T07:21:56.583Z,1011.39
2022-09-02T07:22:56.853Z,1011.41
2022-09-02T07:23:56.565Z,1011.35
2022-09-02T07:24:56.553Z,1011.25
2022-09-02T07:25:56.545Z,1011.17
2022-09-02T07:26:56.528Z,1011.27
2022-09-02T07:27:56.520Z,1011.14
2022-09-02T07:28:56.544Z,1011.15
2022-09-02T07:29:56.499Z,1011.19
2022-09-02T07:30:59.649Z,1011.16
2022-09-02T07:31:56.474Z,1011.14
2022-09-02T07:32:56.463Z,1011.15
2022-09-02T07:33:56.482Z,1011.15
2022-09-02T07:34:56.446Z,1011.13
2022-09-02T07:35:56.445Z,1011.09
2022-09-02T07:37:00.515Z,1011.20
2022-09-02T07:37:57.414Z,1011.17
2022-09-02T07:38:56.398Z,1011.18
2022-09-02T07:39:56.420Z,1011.17
2022-09-02T07:40:56.800Z,1011.12
2022-09-02T07:41:56.368Z,1011.17
2022-09-02T07:43:59.604Z,1011.19
2022-09-02T07:44:56.361Z,1011.14
2022-09-02T07:45:56.497Z,1011.15
2022-09-02T07:46:56.326Z,1011.13
2022-09-02T07:47:56.302Z,1011.20
2022-09-02T07:48:56.288Z,1011.11
2022-09-02T07:50:57.283Z,1011.13
2022-09-02T07:51:56.257Z,1011.12
2022-09-02T07:52:56.244Z,1011.15
2022-09-02T07:53:56.246Z,1011.13
2022-09-02T07:54:56.224Z,1011.13
2022-09-02T07:55:56.211Z,1011.12
2022-09-02T07:56:56.232Z,1011.12
2022-09-02T07:57:56.190Z,1011.11
2022-09-02T07:58:56.180Z,1011.17
2022-09-02T07:59:56.179Z,1011.18
2022-09-02T08:00:56.260Z,1011.09
2022-09-02T08:01:56.158Z,1011.10
2022-09-02T08:02:56.853Z,1011.11
2022-09-02T08:03:56.133Z,1011.11
2022-09-02T08:04:56.115Z,1011.12
2022-09-02T08:05:56.113Z,1011.12
2022-09-02T08:06:56.110Z,1011.07
2022-09-02T08:07:56.082Z,1011.13
2022-09-02T08:08:56.073Z,1011.09
2022-09-02T08:09:56.060Z,1011.15
2022-09-02T08:10:56.102Z,1011.06
2022-09-02T08:11:56.061Z,1011.12
2022-09-02T08:12:56.031Z,1011.16
2022-09-02T08:13:56.029Z,1011.11
2022-09-02T08:14:56.009Z,1011.17
2022-09-02T08:15:56.003Z,1011.13
2022-09-02T08:16:56.082Z,1011.09
2022-09-02T08:17:55.970Z,1011.12
2022-09-02T08:18:55.971Z,1011.12
2022-09-02T08:19:55.948Z,1011.10
2022-09-02T08:20:55.957Z,1011.08
2022-09-02T08:21:55.935Z,1011.09
2022-09-02T08:23:05.793Z,1011.05
2022-09-02T08:23:56.908Z,1011.07
2022-09-02T08:24:55.909Z,1011.00
2022-09-02T08:25:55.895Z,1011.06
2022-09-02T08:26:55.871Z,1011.04
2022-09-02T08:28:55.852Z,1011.00
2022-09-02T08:29:55.838Z,1010.97
2022-09-02T08:30:55.830Z,1010.97
2022-09-02T08:31:55.845Z,1010.93
2022-09-02T08:32:55.817Z,1010.88
2022-09-02T08:33:56.752Z,1010.93
2022-09-02T08:34:55.786Z,1010.88
2022-09-02T08:35:55.770Z,1010.94
2022-09-02T08:36:56.227Z,1010.92
2022-09-02T08:37:55.753Z,1010.86
2022-09-02T08:38:55.743Z,1010.94
2022-09-02T08:39:55.739Z,1010.93
2022-09-02T08:40:55.774Z,1010.93
2022-09-02T08:41:55.751Z,1010.96
2022-09-02T08:42:55.712Z,1010.96
2022-09-02T08:43:55.687Z,1010.94
2022-09-02T08:44:55.682Z,1010.94
2022-09-02T08:45:55.723Z,1010.92
2022-09-02T08:46:55.667Z,1010.99
2022-09-02T08:47:55.651Z,1010.94
2022-09-02T08:48:55.638Z,1010.93
2022-09-02T08:49:55.619Z,1010.97
2022-09-02T08:50:55.612Z,1010.95
2022-09-02T08:51:55.607Z,1010.93
2022-09-02T08:52:55.601Z,1010.93
2022-09-02T08:53:55.577Z,1010.92
2022-09-02T08:54:55.683Z,1010.99
2022-09-02T08:55:55.562Z,1010.91
2022-09-02T08:56:55.546Z,1010.95
2022-09-02T08:57:55.729Z,1010.90
2022-09-02T08:58:56.498Z,1010.94
2022-09-02T08:59:55.512Z,1010.81
2022-09-02T09:00:55.555Z,1010.92
2022-09-02T09:01:55.543Z,1010.83
2022-09-02T09:02:55.496Z,1010.85
2022-09-02T09:03:55.481Z,1010.77
2022-09-02T09:04:55.459Z,1010.81
2022-09-02T09:05:55.444Z,1010.81
2022-09-02T09:06:55.442Z,1010.84
2022-09-02T09:07:55.433Z,1010.80
2022-09-02T09:08:55.466Z,1010.74
2022-09-02T09:09:55.407Z,1010.77
2022-09-02T09:10:55.395Z,1010.76
2022-09-02T09:11:55.405Z,1010.77
2022-09-02T09:12:55.394Z,1010.75
2022-09-02T09:13:55.359Z,1010.84
2022-09-02T09:14:55.361Z,1010.71
2022-09-02T09:15:55.336Z,1010.72
2022-09-02T09:16:55.414Z,1010.70
2022-09-02T09:17:55.343Z,1010.82
2022-09-02T09:18:55.305Z,1010.78
2022-09-02T09:19:55.296Z,1010.76
2022-09-02T09:20:55.301Z,1010.75
2022-09-02T09:21:55.270Z,1010.78
2022-09-02T09:22:55.264Z,1010.74
2022-09-02T09:23:55.262Z,1010.72
2022-09-02T09:24:55.240Z,1010.59
2022-09-02T09:25:55.226Z,1010.59
2022-09-02T09:26:55.231Z,1010.59
2022-09-02T09:27:55.203Z,1010.48
2022-09-02T09:28:55.213Z,1010.58
2022-09-02T09:29:55.188Z,1010.54
2022-09-02T09:30:55.174Z,1010.51
2022-09-02T09:31:55.314Z,1010.53
2022-09-02T09:32:55.160Z,1010.55
2022-09-02T09:33:55.148Z,1010.50
2022-09-02T09:34:55.132Z,1010.51
2022-09-02T09:35:55.119Z,1010.51
2022-09-02T09:36:55.109Z,1010.51
2022-09-02T09:37:55.094Z,1010.47
2022-09-02T09:38:55.110Z,1010.44
2022-09-02T09:39:55.074Z,1010.48
2022-09-02T09:40:55.092Z,1010.41
2022-09-02T09:41:55.057Z,1010.47
2022-09-02T09:42:55.090Z,1010.40
2022-09-02T09:43:55.040Z,1010.41
2022-09-02T09:44:55.035Z,1010.45
2022-09-02T09:45:55.084Z,1010.39
2022-09-02T09:46:55.001Z,1010.42
2022-09-02T09:47:54.986Z,1010.45
2022-09-02T09:48:54.990Z,1010.45
2022-09-02T09:49:54.977Z,1010.52
2022-09-02T09:50:54.970Z,1010.41
2022-09-02T09:51:54.945Z,1010.40
2022-09-02T09:52:54.937Z,1010.47
2022-09-02T09:53:54.931Z,1010.41
2022-09-02T09:54:54.912Z,1010.41
2022-09-02T09:55:54.912Z,1010.35
2022-09-02T09:56:55.067Z,1010.44
2022-09-02T09:57:54.914Z,1010.36
2022-09-02T09:58:54.879Z,1010.39
2022-09-02T09:59:54.855Z,1010.39
2022-09-02T10:00:54.928Z,1010.41
2022-09-02T10:01:54.883Z,1010.36
2022-09-02T10:02:54.845Z,1010.38
2022-09-02T10:03:54.809Z,1010.36
2022-09-02T10:04:54.804Z,1010.29
2022-09-02T10:05:54.795Z,1010.28
2022-09-02T10:06:54.783Z,1010.33
2022-09-02T10:07:54.776Z,1010.31
2022-09-02T10:08:54.771Z,1010.28
2022-09-02T10:09:54.747Z,1010.28
2022-09-02T10:10:54.739Z,1010.20
2022-09-02T10:11:54.721Z,1010.20
2022-09-02T10:12:54.717Z,1010.20
2022-09-02T10:13:54.721Z,1010.17
2022-09-02T10:14:54.706Z,1010.22
2022-09-02T10:15:54.721Z,1010.17
2022-09-02T10:16:54.797Z,1010.16
2022-09-02T10:17:54.657Z,1010.08
2022-09-02T10:18:54.668Z,1010.11
2022-09-02T10:19:54.648Z,1010.31
2022-09-02T10:21:55.611Z,1010.17
2022-09-02T10:22:59.367Z,1010.17
2022-09-02T10:23:55.603Z,1010.15
2022-09-02T10:24:54.592Z,1010.17
2022-09-02T10:25:54.589Z,1010.15
2022-09-02T10:26:54.560Z,1010.11
2022-09-02T10:27:54.554Z,1010.14
2022-09-02T10:28:54.541Z,1010.12
2022-09-02T10:29:54.536Z,1010.12
2022-09-02T10:30:54.523Z,1010.08
2022-09-02T10:31:54.573Z,1010.06
2022-09-02T10:32:54.496Z,1009.96
2022-09-02T10:33:54.478Z,1010.03
2022-09-02T10:34:54.488Z,1009.96
2022-09-02T10:35:54.461Z,1009.93
2022-09-02T10:36:54.468Z,1010.02
2022-09-02T10:37:54.437Z,1010.01
2022-09-02T10:38:54.429Z,1010.04
2022-09-02T10:39:54.412Z,1009.97
2022-09-02T10:40:54.522Z,1010.08
2022-09-02T10:41:54.394Z,1010.04
2022-09-02T10:42:54.389Z,1010.02
2022-09-02T10:43:57.391Z,1009.98
2022-09-02T10:44:58.381Z,1010.02
2022-09-02T10:45:54.349Z,1010.00
2022-09-02T10:46:54.456Z,1010.00
2022-09-02T10:47:54.347Z,1009.91
2022-09-02T10:48:54.313Z,1009.93
2022-09-02T10:49:54.309Z,1009.90
2022-09-02T10:50:54.311Z,1009.93
2022-09-02T10:51:54.284Z,1009.86
2022-09-02T10:52:54.270Z,1009.89
2022-09-02T10:53:54.257Z,1009.95
2022-09-02T10:54:54.272Z,1009.85
2022-09-02T10:55:54.236Z,1009.88
2022-09-02T10:56:54.243Z,1009.82
2022-09-02T10:57:54.212Z,1009.88
2022-09-02T10:58:54.267Z,1009.87
2022-09-02T10:59:54.190Z,1009.90
2022-09-02T11:00:54.284Z,1009.82
2022-09-02T11:01:54.181Z,1009.87
2022-09-02T11:02:54.160Z,1009.84
2022-09-02T11:03:54.258Z,1009.94
2022-09-02T11:04:55.201Z,1009.78
2022-09-02T11:05:54.155Z,1009.81
2022-09-02T11:07:09.396Z,1009.85
2022-09-02T11:07:55.105Z,1009.78
2022-09-02T11:08:54.129Z,1009.78
2022-09-02T11:09:54.105Z,1009.83
2022-09-02T11:10:54.073Z,1009.79
2022-09-02T11:11:56.974Z,1009.79
2022-09-02T11:12:54.076Z,1009.79
2022-09-02T11:13:54.038Z,1009.78
2022-09-02T11:14:54.029Z,1009.80
2022-09-02T11:15:54.053Z,1009.76
2022-09-02T11:16:54.013Z,1009.80
2022-09-02T11:17:54.000Z,1009.77
2022-09-02T11:18:53.982Z,1009.80
2022-09-02T11:19:53.969Z,1009.75
2022-09-02T11:20:53.958Z,1009.76
2022-09-02T11:21:53.958Z,1009.78
2022-09-02T11:22:54.408Z,1009.85
2022-09-02T11:23:53.934Z,1009.73
2022-09-02T11:24:53.935Z,1009.75
2022-09-02T11:25:53.905Z,1009.70
2022-09-02T11:26:53.912Z,1009.71
2022-09-02T11:27:53.913Z,1009.75
2022-09-02T11:28:53.874Z,1009.76
2022-09-02T11:29:53.861Z,1009.71
2022-09-02T11:30:53.881Z,1009.75
2022-09-02T11:31:53.862Z,1009.78
2022-09-02T11:32:53.834Z,1009.74
2022-09-02T11:33:53.886Z,1009.67
2022-09-02T11:34:53.811Z,1009.60
2022-09-02T11:35:53.844Z,1009.61
2022-09-02T11:36:53.787Z,1009.63
2022-09-02T11:37:53.799Z,1009.56
2022-09-02T11:38:53.763Z,1009.59
2022-09-02T11:40:02.353Z,1009.58
2022-09-02T11:41:54.774Z,1009.64
2022-09-02T11:42:53.957Z,1009.65
2022-09-02T11:44:53.699Z,1009.63
2022-09-02T11:45:53.750Z,1009.60
2022-09-02T11:46:53.711Z,1009.64
2022-09-02T11:47:53.672Z,1009.59
2022-09-02T11:48:53.675Z,1009.61
2022-09-02T11:49:53.652Z,1009.50
2022-09-02T11:50:53.637Z,1009.52
2022-09-02T11:51:53.619Z,1009.57
2022-09-02T11:52:53.620Z,1009.44
2022-09-02T11:53:55.996Z,1009.55
2022-09-02T11:54:53.584Z,1009.54
2022-09-02T11:55:53.574Z,1009.53
2022-09-02T11:56:53.582Z,1009.45
2022-09-02T11:57:53.564Z,1009.46
2022-09-02T11:58:53.544Z,1009.44
2022-09-02T11:59:53.545Z,1009.35
2022-09-02T12:00:53.528Z,1009.46
2022-09-02T12:01:53.514Z,1009.39
2022-09-02T12:02:53.498Z,1009.42
2022-09-02T12:04:27.481Z,1009.30
2022-09-02T12:05:00.275Z,1009.38
2022-09-02T12:05:54.599Z,1009.41
2022-09-02T12:06:54.455Z,1009.41
2022-09-02T12:07:53.471Z,1009.54
2022-09-02T12:08:53.435Z,1009.43
2022-09-02T12:09:53.455Z,1009.38
2022-09-02T12:10:53.413Z,1009.29
2022-09-02T12:11:53.487Z,1009.35
2022-09-02T12:12:53.443Z,1009.40
2022-09-02T12:13:54.444Z,1009.38
2022-09-02T12:14:53.380Z,1009.41
2022-09-02T12:15:53.427Z,1009.23
2022-09-02T12:16:53.349Z,1009.30
2022-09-02T12:17:53.366Z,1009.24
2022-09-02T12:18:53.371Z,1009.32
2022-09-02T12:19:53.308Z,1009.30
2022-09-02T12:20:53.297Z,1009.24
2022-09-02T12:21:53.288Z,1009.16
2022-09-02T12:22:53.286Z,1009.27
2022-09-02T12:23:53.318Z,1009.27
2022-09-02T12:24:53.332Z,1009.25
2022-09-02T12:25:53.244Z,1009.24
2022-09-02T12:26:53.258Z,1009.24
2022-09-02T12:27:53.244Z,1009.21
2022-09-02T12:28:53.211Z,1009.23
2022-09-02T12:29:53.206Z,1009.17
2022-09-02T12:30:53.185Z,1009.17
2022-09-02T12:31:53.308Z,1009.26
2022-09-02T12:32:53.178Z,1009.22
2022-09-02T12:33:53.188Z,1009.20
2022-09-02T12:34:53.141Z,1009.23
2022-09-02T12:35:53.146Z,1009.14
2022-09-02T12:36:53.127Z,1009.19
2022-09-02T12:37:53.944Z,1009.13
2022-09-02T12:38:53.099Z,1009.24
2022-09-02T12:39:53.094Z,1009.15
2022-09-02T12:40:53.146Z,1009.06
2022-09-02T12:41:53.067Z,1009.10
2022-09-02T12:42:53.090Z,1009.14
2022-09-02T12:43:53.057Z,1009.03
2022-09-02T12:44:53.028Z,1009.04
2022-09-02T12:45:53.022Z,1009.07
2022-09-02T12:46:53.074Z,1009.09
2022-09-02T12:47:53.006Z,1009.08
2022-09-02T12:48:53.011Z,1008.94
2022-09-02T12:49:52.978Z,1009.03
2022-09-02T12:50:52.964Z,1009.01
2022-09-02T12:51:52.974Z,1008.96
2022-09-02T12:52:52.980Z,1009.05
2022-09-02T12:53:52.935Z,1008.97
2022-09-02T12:54:52.942Z,1009.04
2022-09-02T12:55:52.910Z,1008.98
2022-09-02T12:56:52.895Z,1008.96
2022-09-02T12:57:52.894Z,1008.99
2022-09-02T12:58:52.884Z,1008.97
2022-09-02T12:59:52.880Z,1008.90
2022-09-02T13:00:52.856Z,1008.90
2022-09-02T13:01:53.096Z,1008.88
2022-09-02T13:02:52.831Z,1008.88
2022-09-02T13:03:52.842Z,1008.88
2022-09-02T13:04:52.830Z,1008.90
2022-09-02T13:05:52.800Z,1008.92
2022-09-02T13:06:52.832Z,1008.96
2022-09-02T13:07:52.779Z,1008.88
2022-09-02T13:08:52.915Z,1008.91
2022-09-02T13:09:52.756Z,1008.81
2022-09-02T13:10:52.740Z,1008.89
2022-09-02T13:11:52.732Z,1008.88
2022-09-02T13:12:52.779Z,1008.83
2022-09-02T13:13:52.716Z,1008.85
2022-09-02T13:14:52.811Z,1008.81
2022-09-02T13:15:52.740Z,1008.80
2022-09-02T13:16:52.684Z,1008.78
2022-09-02T13:17:52.671Z,1008.78
2022-09-02T13:18:52.653Z,1008.68
2022-09-02T13:19:52.645Z,1008.71
2022-09-02T13:20:55.989Z,1008.75
2022-09-02T13:21:52.658Z,1008.74
2022-09-02T13:22:52.607Z,1008.76
2022-09-02T13:23:52.604Z,1008.84
2022-09-02T13:24:52.697Z,1008.76
2022-09-02T13:25:52.579Z,1008.81
2022-09-02T13:26:52.568Z,1008.75
2022-09-02T13:27:52.557Z,1008.73
2022-09-02T13:28:52.541Z,1008.79
2022-09-02T13:29:52.568Z,1008.73
2022-09-02T13:30:52.569Z,1008.72
2022-09-02T13:31:52.515Z,1008.73
2022-09-02T13:32:52.498Z,1008.70
2022-09-02T13:33:52.491Z,1008.65
2022-09-02T13:34:52.497Z,1008.72
2022-09-02T13:35:52.546Z,1008.69
2022-09-02T13:36:55.165Z,1008.74
2022-09-02T13:37:52.966Z,1008.72
2022-09-02T13:38:52.477Z,1008.71
2022-09-02T13:39:52.446Z,1008.66
2022-09-02T13:40:52.484Z,1008.74
2022-09-02T13:41:52.404Z,1008.72
2022-09-02T13:42:52.406Z,1008.66
2022-09-02T13:43:52.382Z,1008.64
2022-09-02T13:44:52.367Z,1008.64
2022-09-02T13:45:52.374Z,1008.65
2022-09-02T13:46:52.369Z,1008.66
2022-09-02T13:47:52.334Z,1008.64
2022-09-02T13:48:52.360Z,1008.69
2022-09-02T13:49:52.356Z,1008.59
2022-09-02T13:50:52.325Z,1008.60
2022-09-02T13:51:52.296Z,1008.58
2022-09-02T13:53:45.986Z,1008.59
2022-09-02T13:54:21.457Z,1008.62
2022-09-02T13:54:53.259Z,1008.60
2022-09-02T13:55:52.246Z,1008.56
2022-09-02T13:56:52.249Z,1008.55
2022-09-02T13:57:52.227Z,1008.58
2022-09-02T13:58:52.231Z,1008.52
2022-09-02T13:59:52.204Z,1008.54
2022-09-02T14:00:52.386Z,1008.60
2022-09-02T14:01:52.337Z,1008.56
2022-09-02T14:02:52.287Z,1008.55
2022-09-02T14:03:52.310Z,1008.56
2022-09-02T14:04:52.149Z,1008.52
2022-09-02T14:05:52.144Z,1008.47
2022-09-02T14:06:52.137Z,1008.56
2022-09-02T14:07:52.118Z,1008.57
2022-09-02T14:08:52.102Z,1008.54
2022-09-02T14:09:52.113Z,1008.50
2022-09-02T14:10:52.100Z,1008.52
2022-09-02T14:11:52.070Z,1008.43
2022-09-02T14:12:52.086Z,1008.45
2022-09-02T14:13:52.052Z,1008.43
2022-09-02T14:14:52.040Z,1008.41
2022-09-02T14:15:52.157Z,1008.41
2022-09-02T14:16:52.017Z,1008.39
2022-09-02T14:17:52.007Z,1008.40
2022-09-02T14:18:51.992Z,1008.37
2022-09-02T14:19:51.993Z,1008.36
2022-09-02T14:20:51.999Z,1008.44
2022-09-02T14:21:59.046Z,1008.38
2022-09-02T14:22:51.964Z,1008.43
2022-09-02T14:23:51.938Z,1008.37
2022-09-02T14:24:51.932Z,1008.38
2022-09-02T14:25:51.918Z,1008.42
2022-09-02T14:26:51.916Z,1008.34
2022-09-02T14:27:51.896Z,1008.36
2022-09-02T14:28:51.888Z,1008.34
2022-09-02T14:29:51.884Z,1008.33
2022-09-02T14:30:51.881Z,1008.31
2022-09-02T14:31:51.865Z,1008.28
2022-09-02T14:32:51.838Z,1008.26
2022-09-02T14:33:51.829Z,1008.21
2022-09-02T14:34:51.822Z,1008.33
2022-09-02T14:35:51.814Z,1008.22
2022-09-02T14:36:51.793Z,1008.25
2022-09-02T14:37:51.794Z,1008.27
2022-09-02T14:38:51.771Z,1008.24
2022-09-02T14:39:51.794Z,1008.19
2022-09-02T14:40:51.748Z,1008.21
2022-09-02T14:41:51.757Z,1008.23
2022-09-02T14:42:56.822Z,1008.20
2022-09-02T14:43:52.719Z,1008.15
2022-09-02T14:44:51.706Z,1008.24
2022-09-02T14:45:51.765Z,1008.18
2022-09-02T14:46:51.699Z,1008.14
2022-09-02T14:47:51.696Z,1008.06
2022-09-02T14:48:51.665Z,1008.14
2022-09-02T14:49:51.654Z,1008.09
2022-09-02T14:50:51.644Z,1008.08
2022-09-02T14:51:51.639Z,1008.14
2022-09-02T14:52:51.626Z,1008.06
2022-09-02T14:53:51.608Z,1008.09
2022-09-02T14:54:51.602Z,1008.05
2022-09-02T14:55:51.587Z,1008.05
2022-09-02T14:56:51.574Z,1008.07
2022-09-02T14:57:51.595Z,1008.10
2022-09-02T14:58:51.546Z,1008.11